createdAt,value
2023-03-06T00:00:06.401Z,66.29
2023-03-06T00:00:24.511Z,66.70
2023-03-06T00:00:39.955Z,66.86
2023-03-06T00:00:57.362Z,67.39
2023-03-06T00:01:09.894Z,67.07
2023-03-06T00:01:21.858Z,67.36
2023-03-06T00:01:33.795Z,67.10
2023-03-06T00:01:48.940Z,67.07
2023-03-06T00:02:00.886Z,67.05
2023-03-06T00:02:12.958Z,66.89
2023-03-06T00:02:25.204Z,66.46
2023-03-06T00:02:37.162Z,67.27
2023-03-06T00:02:49.586Z,67.09
2023-03-06T00:03:05.334Z,66.73
2023-03-06T00:03:17.774Z,66.98
2023-03-06T00:03:30.082Z,66.86
2023-03-06T00:03:42.113Z,66.60
2023-03-06T00:03:55.202Z,66.60
2023-03-06T00:04:08.467Z,66.45
2023-03-06T00:04:20.839Z,66.24
2023-03-06T00:04:32.810Z,66.46
2023-03-06T00:04:44.761Z,66.47
2023-03-06T00:04:57.056Z,66.27
2023-03-06T00:05:09.156Z,65.62
2023-03-06T00:05:22.869Z,66.78
2023-03-06T00:05:34.951Z,66.79
2023-03-06T00:05:47.680Z,67.70
2023-03-06T00:06:00.565Z,67.42
2023-03-06T00:06:12.614Z,67.42
2023-03-06T00:06:24.652Z,67.64
2023-03-06T00:06:36.671Z,67.51
2023-03-06T00:06:51.586Z,68.12
2023-03-06T00:07:03.604Z,68.04
2023-03-06T00:07:15.548Z,68.36
2023-03-06T00:07:27.547Z,68.17
2023-03-06T00:07:39.572Z,67.92
2023-03-06T00:07:51.617Z,68.18
2023-03-06T00:08:03.693Z,68.22
2023-03-06T00:08:15.775Z,68.61
2023-03-06T00:08:28.952Z,68.26
2023-03-06T00:08:40.896Z,68.94
2023-03-06T00:08:52.944Z,68.52
2023-03-06T00:09:04.966Z,69.04
2023-03-06T00:09:16.954Z,68.51
2023-03-06T00:09:29.006Z,68.52
2023-03-06T00:09:41.042Z,68.10
2023-03-06T00:09:53.025Z,68.14
2023-03-06T00:10:05.410Z,68.16
2023-03-06T00:10:32.082Z,67.46
2023-03-06T00:10:44.568Z,67.54
2023-03-06T00:10:57.001Z,67.47
2023-03-06T00:11:09.014Z,67.54
2023-03-06T00:11:21.261Z,66.67
2023-03-06T00:11:33.396Z,66.79
2023-03-06T00:11:45.416Z,67.10
2023-03-06T00:11:57.505Z,67.11
2023-03-06T00:12:09.779Z,66.76
2023-03-06T00:12:21.917Z,66.86
2023-03-06T00:12:34.136Z,67.05
2023-03-06T00:12:46.364Z,67.01
2023-03-06T00:13:01.531Z,66.86
2023-03-06T00:13:15.266Z,66.71
2023-03-06T00:13:30.072Z,66.90
2023-03-06T00:13:42.198Z,66.80
2023-03-06T00:13:54.220Z,66.43
2023-03-06T00:14:06.491Z,66.18
2023-03-06T00:14:18.526Z,66.30
2023-03-06T00:14:30.645Z,66.26
2023-03-06T00:14:42.721Z,66.18
2023-03-06T00:14:54.836Z,66.11
2023-03-06T00:15:07.816Z,66.67
2023-03-06T00:15:20.354Z,66.21
2023-03-06T00:15:32.617Z,66.11
2023-03-06T00:15:45.587Z,66.11
2023-03-06T00:16:01.005Z,65.88
2023-03-06T00:16:13.427Z,65.57
2023-03-06T00:16:25.771Z,65.69
2023-03-06T00:16:37.860Z,65.85
2023-03-06T00:16:49.997Z,65.53
2023-03-06T00:17:02.056Z,65.70
2023-03-06T00:17:14.052Z,65.87
2023-03-06T00:17:28.263Z,65.16
2023-03-06T00:17:40.976Z,64.85
2023-03-06T00:17:53.246Z,65.91
2023-03-06T00:18:06.383Z,66.07
2023-03-06T00:18:18.500Z,66.07
2023-03-06T00:18:30.593Z,66.11
2023-03-06T00:18:44.093Z,65.89
2023-03-06T00:18:56.237Z,65.84
2023-03-06T00:19:08.432Z,66.59
2023-03-06T00:19:20.515Z,66.76
2023-03-06T00:19:32.612Z,67.23
2023-03-06T00:19:44.831Z,66.97
2023-03-06T00:19:57.241Z,67.30
2023-03-06T00:20:11.844Z,67.45
2023-03-06T00:20:25.863Z,66.81
2023-03-06T00:20:43.070Z,67.25
2023-03-06T00:20:55.171Z,66.65
2023-03-06T00:21:08.312Z,66.94
2023-03-06T00:21:20.460Z,67.23
2023-03-06T00:21:32.516Z,67.39
2023-03-06T00:21:44.577Z,66.89
2023-03-06T00:21:56.873Z,67.08
2023-03-06T00:22:13.792Z,66.80
2023-03-06T00:22:28.699Z,66.97
2023-03-06T00:22:41.237Z,66.55
2023-03-06T00:22:56.588Z,66.42
2023-03-06T00:23:09.793Z,66.27
2023-03-06T00:23:21.923Z,66.68
2023-03-06T00:23:34.176Z,66.50
2023-03-06T00:23:46.282Z,66.43
2023-03-06T00:23:58.436Z,66.36
2023-03-06T00:24:10.529Z,66.33
2023-03-06T00:24:22.604Z,66.48
2023-03-06T00:24:34.808Z,65.93
2023-03-06T00:24:46.901Z,65.95
2023-03-06T00:24:59.039Z,66.01
2023-03-06T00:25:17.310Z,66.51
2023-03-06T00:25:29.431Z,66.67
2023-03-06T00:25:48.370Z,66.05
2023-03-06T00:26:00.410Z,66.03
2023-03-06T00:26:12.505Z,66.39
2023-03-06T00:26:24.599Z,65.93
2023-03-06T00:26:36.782Z,65.99
2023-03-06T00:26:48.943Z,66.12
2023-03-06T00:27:01.240Z,65.65
2023-03-06T00:27:14.630Z,66.27
2023-03-06T00:27:26.802Z,66.54
2023-03-06T00:27:38.903Z,66.24
2023-03-06T00:27:51.221Z,66.37
2023-03-06T00:28:03.920Z,65.75
2023-03-06T00:28:17.376Z,66.20
2023-03-06T00:28:31.461Z,65.86
2023-03-06T00:28:46.627Z,65.64
2023-03-06T00:28:58.823Z,66.18
2023-03-06T00:29:10.906Z,65.86
2023-03-06T00:29:22.856Z,65.28
2023-03-06T00:29:34.892Z,65.97
2023-03-06T00:29:49.211Z,65.85
2023-03-06T00:30:01.681Z,65.54
2023-03-06T00:30:16.221Z,65.75
2023-03-06T00:30:28.188Z,65.59
2023-03-06T00:30:40.160Z,65.56
2023-03-06T00:30:52.146Z,65.14
2023-03-06T00:31:04.294Z,65.20
2023-03-06T00:31:16.262Z,65.39
2023-03-06T00:31:28.302Z,65.41
2023-03-06T00:31:40.320Z,65.37
2023-03-06T00:31:52.271Z,65.29
2023-03-06T00:32:04.427Z,65.57
2023-03-06T00:32:16.497Z,65.60
2023-03-06T00:32:28.901Z,65.27
2023-03-06T00:32:41.407Z,65.40
2023-03-06T00:32:54.145Z,64.92
2023-03-06T00:33:06.106Z,65.06
2023-03-06T00:33:18.047Z,65.24
2023-03-06T00:33:30.156Z,65.20
2023-03-06T00:33:43.416Z,65.10
2023-03-06T00:33:55.392Z,65.60
2023-03-06T00:34:09.404Z,65.32
2023-03-06T00:34:21.376Z,65.91
2023-03-06T00:34:33.427Z,65.75
2023-03-06T00:34:49.141Z,65.41
2023-03-06T00:35:01.078Z,66.03
2023-03-06T00:35:13.699Z,65.20
2023-03-06T00:35:25.711Z,65.69
2023-03-06T00:35:41.430Z,65.91
2023-03-06T00:35:53.503Z,65.84
2023-03-06T00:36:06.361Z,65.71
2023-03-06T00:36:18.442Z,65.28
2023-03-06T00:36:30.376Z,65.16
2023-03-06T00:36:42.308Z,65.38
2023-03-06T00:36:54.268Z,65.89
2023-03-06T00:37:06.218Z,65.35
2023-03-06T00:37:19.002Z,65.34
2023-03-06T00:37:31.139Z,65.33
2023-03-06T00:37:43.154Z,65.86
2023-03-06T00:37:55.090Z,65.47
2023-03-06T00:38:07.928Z,65.56
2023-03-06T00:38:19.887Z,65.55
2023-03-06T00:38:35.370Z,65.51
2023-03-06T00:38:47.331Z,65.58
2023-03-06T00:38:59.323Z,65.13
2023-03-06T00:39:11.326Z,65.50
2023-03-06T00:39:23.594Z,65.92
2023-03-06T00:39:35.539Z,65.74
2023-03-06T00:39:50.650Z,65.44
2023-03-06T00:40:08.605Z,64.83
2023-03-06T00:40:21.801Z,65.22
2023-03-06T00:40:33.892Z,65.46
2023-03-06T00:40:45.942Z,65.68
2023-03-06T00:40:57.937Z,65.59
2023-03-06T00:41:11.100Z,65.50
2023-03-06T00:41:23.194Z,65.62
2023-03-06T00:41:35.212Z,65.73
2023-03-06T00:41:47.219Z,65.96
2023-03-06T00:41:59.236Z,65.71
2023-03-06T00:42:11.670Z,65.52
2023-03-06T00:42:23.773Z,65.86
2023-03-06T00:42:35.794Z,65.35
2023-03-06T00:42:48.628Z,66.02
2023-03-06T00:43:00.683Z,66.19
2023-03-06T00:43:12.847Z,66.16
2023-03-06T00:43:24.839Z,65.47
2023-03-06T00:43:36.998Z,65.92
2023-03-06T00:43:48.951Z,66.07
2023-03-06T00:44:00.855Z,66.30
2023-03-06T00:44:12.844Z,66.33
2023-03-06T00:44:24.856Z,66.15
2023-03-06T00:44:36.895Z,65.94
2023-03-06T00:44:49.002Z,66.04
2023-03-06T00:45:01.022Z,66.17
2023-03-06T00:45:14.256Z,66.63
2023-03-06T00:45:26.217Z,66.19
2023-03-06T00:45:38.473Z,66.76
2023-03-06T00:45:50.736Z,66.51
2023-03-06T00:46:02.901Z,66.29
2023-03-06T00:46:17.519Z,66.15
2023-03-06T00:46:29.503Z,66.30
2023-03-06T00:46:41.509Z,66.17
2023-03-06T00:46:53.502Z,66.26
2023-03-06T00:47:05.665Z,66.22
2023-03-06T00:47:17.656Z,66.13
2023-03-06T00:47:29.766Z,66.21
2023-03-06T00:47:42.233Z,66.12
2023-03-06T00:47:54.335Z,66.09
2023-03-06T00:48:06.553Z,65.88
2023-03-06T00:48:18.541Z,66.06
2023-03-06T00:48:36.498Z,66.42
2023-03-06T00:48:48.525Z,66.21
2023-03-06T00:49:00.576Z,66.23
2023-03-06T00:49:12.564Z,65.82
2023-03-06T00:49:24.630Z,66.45
2023-03-06T00:49:36.623Z,65.64
2023-03-06T00:49:49.849Z,65.96
2023-03-06T00:50:01.905Z,66.13
2023-03-06T00:50:13.884Z,66.01
2023-03-06T00:50:25.852Z,65.92
2023-03-06T00:50:37.884Z,66.23
2023-03-06T00:50:49.829Z,66.06
2023-03-06T00:51:04.949Z,66.27
2023-03-06T00:51:19.626Z,66.26
2023-03-06T00:51:31.738Z,65.79
2023-03-06T00:51:43.717Z,65.81
2023-03-06T00:51:55.738Z,66.12
2023-03-06T00:52:07.706Z,65.69
2023-03-06T00:52:19.643Z,65.27
2023-03-06T00:52:32.062Z,65.58
2023-03-06T00:52:44.074Z,65.70
2023-03-06T00:52:56.074Z,65.83
2023-03-06T00:53:08.079Z,65.62
2023-03-06T00:53:20.060Z,65.74
2023-03-06T00:53:32.048Z,66.48
2023-03-06T00:53:43.991Z,66.19
2023-03-06T00:53:55.976Z,65.97
2023-03-06T00:54:07.936Z,66.37
2023-03-06T00:54:19.939Z,66.38
2023-03-06T00:54:31.991Z,66.44
2023-03-06T00:54:43.952Z,66.17
2023-03-06T00:54:56.008Z,66.45
2023-03-06T00:55:09.457Z,66.25
2023-03-06T00:55:21.856Z,66.44
2023-03-06T00:55:33.842Z,66.42
2023-03-06T00:55:46.230Z,66.15
2023-03-06T00:55:58.273Z,66.66
2023-03-06T00:56:10.488Z,66.23
2023-03-06T00:56:22.582Z,65.97
2023-03-06T00:56:34.506Z,66.34
2023-03-06T00:56:46.552Z,66.15
2023-03-06T00:56:58.499Z,66.30
2023-03-06T00:57:10.526Z,66.21
2023-03-06T00:57:22.550Z,66.85
2023-03-06T00:57:34.591Z,66.92
2023-03-06T00:57:46.653Z,66.72
2023-03-06T00:57:58.805Z,67.19
2023-03-06T00:58:11.112Z,67.09
2023-03-06T00:58:23.122Z,67.36
2023-03-06T00:58:35.295Z,66.58
2023-03-06T00:58:47.286Z,66.78
2023-03-06T00:58:59.290Z,66.81
2023-03-06T00:59:11.514Z,66.99
2023-03-06T00:59:23.536Z,66.98
2023-03-06T00:59:35.940Z,66.66
2023-03-06T00:59:47.927Z,66.75
2023-03-06T00:59:59.921Z,66.54
2023-03-06T01:00:13.877Z,66.43
2023-03-06T01:00:25.786Z,66.65
2023-03-06T01:00:38.409Z,66.74
2023-03-06T01:00:50.584Z,66.06
2023-03-06T01:01:02.962Z,66.47
2023-03-06T01:01:15.012Z,66.13
2023-03-06T01:01:27.280Z,66.16
2023-03-06T01:01:39.299Z,66.61
2023-03-06T01:01:51.278Z,66.20
2023-03-06T01:02:03.972Z,66.30
2023-03-06T01:02:18.865Z,66.31
2023-03-06T01:02:30.977Z,66.79
2023-03-06T01:02:43.119Z,66.63
2023-03-06T01:02:56.074Z,66.51
2023-03-06T01:03:09.784Z,66.62
2023-03-06T01:03:21.731Z,66.47
2023-03-06T01:03:33.889Z,66.68
2023-03-06T01:03:45.949Z,66.54
2023-03-06T01:03:57.974Z,66.65
2023-03-06T01:04:10.105Z,66.71
2023-03-06T01:04:22.312Z,66.63
2023-03-06T01:04:34.715Z,66.48
2023-03-06T01:04:47.104Z,66.57
2023-03-06T01:04:59.139Z,66.99
2023-03-06T01:05:13.595Z,66.50
2023-03-06T01:05:28.067Z,66.47
2023-03-06T01:05:40.181Z,66.00
2023-03-06T01:05:52.243Z,66.95
2023-03-06T01:06:04.330Z,66.48
2023-03-06T01:06:17.457Z,66.26
2023-03-06T01:06:30.122Z,67.02
2023-03-06T01:06:42.115Z,66.40
2023-03-06T01:06:54.146Z,66.57
2023-03-06T01:07:09.190Z,66.80
2023-03-06T01:07:21.186Z,66.41
2023-03-06T01:07:36.438Z,66.70
2023-03-06T01:07:48.483Z,66.60
2023-03-06T01:08:00.494Z,66.72
2023-03-06T01:08:12.465Z,66.93
2023-03-06T01:08:24.553Z,66.23
2023-03-06T01:08:36.639Z,66.87
2023-03-06T01:08:48.650Z,66.87
2023-03-06T01:09:00.649Z,66.40
2023-03-06T01:09:13.159Z,66.55
2023-03-06T01:09:25.095Z,66.71
2023-03-06T01:09:37.149Z,66.58
2023-03-06T01:09:49.270Z,66.33
2023-03-06T01:10:01.276Z,66.44
2023-03-06T01:10:13.284Z,66.21
2023-03-06T01:10:25.295Z,66.25
2023-03-06T01:10:39.307Z,66.15
2023-03-06T01:10:51.421Z,66.35
2023-03-06T01:11:03.717Z,66.32
2023-03-06T01:11:15.783Z,66.46
2023-03-06T01:11:27.833Z,66.04
2023-03-06T01:11:39.823Z,66.38
2023-03-06T01:11:51.983Z,66.32
2023-03-06T01:12:04.223Z,66.65
2023-03-06T01:12:16.234Z,66.26
2023-03-06T01:12:28.288Z,66.48
2023-03-06T01:12:40.301Z,66.40
2023-03-06T01:12:52.275Z,66.05
2023-03-06T01:13:04.300Z,66.25
2023-03-06T01:13:16.649Z,66.49
2023-03-06T01:13:28.671Z,66.26
2023-03-06T01:13:40.716Z,66.02
2023-03-06T01:13:52.739Z,66.32
2023-03-06T01:14:05.089Z,66.29
2023-03-06T01:14:19.337Z,66.32
2023-03-06T01:14:31.966Z,66.18
2023-03-06T01:14:44.019Z,66.30
2023-03-06T01:14:56.074Z,66.06
2023-03-06T01:15:09.200Z,66.12
2023-03-06T01:15:24.780Z,66.64
2023-03-06T01:15:36.911Z,66.53
2023-03-06T01:15:48.951Z,66.17
2023-03-06T01:16:19.355Z,66.32
2023-03-06T01:16:31.709Z,66.07
2023-03-06T01:16:43.808Z,66.23
2023-03-06T01:16:55.852Z,66.11
2023-03-06T01:17:07.865Z,65.54
2023-03-06T01:17:19.902Z,65.77
2023-03-06T01:17:31.943Z,65.65
2023-03-06T01:17:44.109Z,65.54
2023-03-06T01:17:56.123Z,65.32
2023-03-06T01:18:08.070Z,65.73
2023-03-06T01:18:20.159Z,66.09
2023-03-06T01:18:32.201Z,65.73
2023-03-06T01:18:44.781Z,66.06
2023-03-06T01:18:57.000Z,66.04
2023-03-06T01:19:09.533Z,65.70
2023-03-06T01:19:21.687Z,66.02
2023-03-06T01:19:33.700Z,65.54
2023-03-06T01:19:45.746Z,65.58
2023-03-06T01:19:58.056Z,65.78
2023-03-06T01:20:13.754Z,66.08
2023-03-06T01:20:25.961Z,66.06
2023-03-06T01:20:38.089Z,65.65
2023-03-06T01:20:50.025Z,65.96
2023-03-06T01:21:02.479Z,65.93
2023-03-06T01:21:14.637Z,66.37
2023-03-06T01:21:26.630Z,66.37
2023-03-06T01:21:38.607Z,66.08
2023-03-06T01:21:50.698Z,66.02
2023-03-06T01:22:02.833Z,66.41
2023-03-06T01:22:14.874Z,66.09
2023-03-06T01:22:26.876Z,66.67
2023-03-06T01:22:38.900Z,66.99
2023-03-06T01:22:50.920Z,66.29
2023-03-06T01:23:02.934Z,66.35
2023-03-06T01:23:14.844Z,66.68
2023-03-06T01:23:26.938Z,66.43
2023-03-06T01:23:39.286Z,66.56
2023-03-06T01:23:51.554Z,67.07
2023-03-06T01:24:03.685Z,66.95
2023-03-06T01:24:15.711Z,66.68
2023-03-06T01:24:28.493Z,66.38
2023-03-06T01:24:40.536Z,66.41
2023-03-06T01:24:52.491Z,66.33
2023-03-06T01:25:04.780Z,66.41
2023-03-06T01:25:16.932Z,66.55
2023-03-06T01:25:29.054Z,66.37
2023-03-06T01:25:40.974Z,66.27
2023-03-06T01:25:52.938Z,66.17
2023-03-06T01:26:05.371Z,66.28
2023-03-06T01:26:17.839Z,66.63
2023-03-06T01:26:29.886Z,66.29
2023-03-06T01:26:41.897Z,66.47
2023-03-06T01:26:54.221Z,66.73
2023-03-06T01:27:06.280Z,66.78
2023-03-06T01:27:18.221Z,66.47
2023-03-06T01:27:30.201Z,66.51
2023-03-06T01:27:42.161Z,66.37
2023-03-06T01:27:54.152Z,66.52
2023-03-06T01:28:06.133Z,66.73
2023-03-06T01:28:18.014Z,66.39
2023-03-06T01:28:30.272Z,66.34
2023-03-06T01:28:42.239Z,66.42
2023-03-06T01:28:54.334Z,66.92
2023-03-06T01:29:09.292Z,66.35
2023-03-06T01:29:21.209Z,66.68
2023-03-06T01:29:33.156Z,65.91
2023-03-06T01:29:45.046Z,66.00
2023-03-06T01:29:57.044Z,65.94
2023-03-06T01:30:09.549Z,66.19
2023-03-06T01:30:21.644Z,66.02
2023-03-06T01:30:33.579Z,66.17
2023-03-06T01:30:45.472Z,66.49
2023-03-06T01:30:57.563Z,65.94
2023-03-06T01:31:09.854Z,65.92
2023-03-06T01:31:21.757Z,66.04
2023-03-06T01:31:33.736Z,65.93
2023-03-06T01:31:45.953Z,66.29
2023-03-06T01:31:57.929Z,66.32
2023-03-06T01:32:09.885Z,66.19
2023-03-06T01:32:21.983Z,65.68
2023-03-06T01:32:33.996Z,66.36
2023-03-06T01:32:46.167Z,65.89
2023-03-06T01:32:59.157Z,66.07
2023-03-06T01:33:11.047Z,66.37
2023-03-06T01:33:22.989Z,66.29
2023-03-06T01:33:35.995Z,66.00
2023-03-06T01:33:47.878Z,66.06
2023-03-06T01:33:59.921Z,66.62
2023-03-06T01:34:11.979Z,66.48
2023-03-06T01:34:23.916Z,65.81
2023-03-06T01:34:35.846Z,65.91
2023-03-06T01:34:47.818Z,65.72
2023-03-06T01:34:59.780Z,65.85
2023-03-06T01:35:12.884Z,66.60
2023-03-06T01:35:24.866Z,66.22
2023-03-06T01:35:38.523Z,66.29
2023-03-06T01:35:50.438Z,66.39
2023-03-06T01:36:07.260Z,66.29
2023-03-06T01:36:19.428Z,66.05
2023-03-06T01:36:31.420Z,66.16
2023-03-06T01:36:43.597Z,66.27
2023-03-06T01:36:55.543Z,66.22
2023-03-06T01:37:07.475Z,66.28
2023-03-06T01:37:19.525Z,66.47
2023-03-06T01:37:31.505Z,66.93
2023-03-06T01:37:43.516Z,66.29
2023-03-06T01:37:58.335Z,66.53
2023-03-06T01:38:10.445Z,66.55
2023-03-06T01:38:22.387Z,66.43
2023-03-06T01:38:35.919Z,66.30
2023-03-06T01:38:47.878Z,66.26
2023-03-06T01:38:59.833Z,66.56
2023-03-06T01:39:11.770Z,66.36
2023-03-06T01:39:23.768Z,66.36
2023-03-06T01:39:35.697Z,66.53
2023-03-06T01:39:47.640Z,66.21
2023-03-06T01:39:59.548Z,66.23
2023-03-06T01:40:12.653Z,66.65
2023-03-06T01:40:24.621Z,66.45
2023-03-06T01:40:37.860Z,66.22
2023-03-06T01:40:49.822Z,66.06
2023-03-06T01:41:03.446Z,66.28
2023-03-06T01:41:16.049Z,66.09
2023-03-06T01:41:27.965Z,66.18
2023-03-06T01:41:39.863Z,66.17
2023-03-06T01:41:51.831Z,66.28
2023-03-06T01:42:03.950Z,65.90
2023-03-06T01:42:16.282Z,65.90
2023-03-06T01:42:28.271Z,66.19
2023-03-06T01:42:40.481Z,66.29
2023-03-06T01:42:52.413Z,66.05
2023-03-06T01:43:29.179Z,65.46
2023-03-06T01:43:44.092Z,65.74
2023-03-06T01:43:56.038Z,65.92
2023-03-06T01:44:11.265Z,66.07
2023-03-06T01:44:23.155Z,65.98
2023-03-06T01:44:35.234Z,66.03
2023-03-06T01:45:05.629Z,65.71
2023-03-06T01:45:17.460Z,66.08
2023-03-06T01:45:35.354Z,65.64
2023-03-06T01:45:49.946Z,66.36
2023-03-06T01:46:26.054Z,65.92
2023-03-06T01:46:43.619Z,65.85
2023-03-06T01:46:55.644Z,65.75
2023-03-06T01:47:07.527Z,65.91
2023-03-06T01:47:19.431Z,66.04
2023-03-06T01:47:31.401Z,66.35
2023-03-06T01:47:44.773Z,66.23
2023-03-06T01:47:56.728Z,66.27
2023-03-06T01:48:08.626Z,66.49
2023-03-06T01:48:23.842Z,66.17
2023-03-06T01:48:35.820Z,66.43
2023-03-06T01:48:49.947Z,66.36
2023-03-06T01:49:07.692Z,66.73
2023-03-06T01:49:23.893Z,66.43
2023-03-06T01:49:40.022Z,66.23
2023-03-06T01:49:53.257Z,66.24
2023-03-06T01:50:08.524Z,66.35
2023-03-06T01:50:20.559Z,65.96
2023-03-06T01:50:32.577Z,66.27
2023-03-06T01:50:44.698Z,66.10
2023-03-06T01:50:56.619Z,66.38
2023-03-06T01:51:09.003Z,66.06
2023-03-06T01:51:23.042Z,66.16
2023-03-06T01:51:45.349Z,65.78
2023-03-06T01:52:09.564Z,65.80
2023-03-06T01:52:25.577Z,66.14
2023-03-06T01:52:50.782Z,65.76
2023-03-06T01:53:02.789Z,65.75
2023-03-06T01:53:15.358Z,65.62
2023-03-06T01:53:27.392Z,65.61
2023-03-06T01:53:40.121Z,65.58
2023-03-06T01:53:53.367Z,66.28
2023-03-06T01:54:10.470Z,65.57
2023-03-06T01:54:24.814Z,65.60
2023-03-06T01:54:44.832Z,65.79
2023-03-06T01:55:13.347Z,65.77
2023-03-06T01:55:30.888Z,65.71
2023-03-06T01:55:42.923Z,65.48
2023-03-06T01:55:55.915Z,65.83
2023-03-06T01:56:08.065Z,65.66
2023-03-06T01:56:20.697Z,65.18
2023-03-06T01:56:33.151Z,65.26
2023-03-06T01:56:47.481Z,65.72
2023-03-06T01:57:05.473Z,65.31
2023-03-06T01:57:40.986Z,65.03
2023-03-06T01:57:57.718Z,65.72
2023-03-06T01:58:14.269Z,65.18
2023-03-06T01:58:26.240Z,65.16
2023-03-06T01:58:38.683Z,65.08
2023-03-06T01:58:51.700Z,64.89
2023-03-06T01:59:04.432Z,65.37
2023-03-06T01:59:16.711Z,65.47
2023-03-06T01:59:29.766Z,65.22
2023-03-06T01:59:43.147Z,65.58
2023-03-06T02:00:08.904Z,65.31
2023-03-06T02:00:24.313Z,65.11
2023-03-06T02:00:36.332Z,65.33
2023-03-06T02:00:48.356Z,65.55
2023-03-06T02:01:00.378Z,65.91
2023-03-06T02:01:14.527Z,65.59
2023-03-06T02:01:26.801Z,65.58
2023-03-06T02:01:39.911Z,65.70
2023-03-06T02:01:51.884Z,65.52
2023-03-06T02:02:08.315Z,65.77
2023-03-06T02:02:21.030Z,65.49
2023-03-06T02:02:33.227Z,65.95
2023-03-06T02:02:50.327Z,65.43
2023-03-06T02:03:12.961Z,65.49
2023-03-06T02:03:27.142Z,65.58
2023-03-06T02:03:41.290Z,65.60
2023-03-06T02:03:54.698Z,65.53
2023-03-06T02:04:07.093Z,65.38
2023-03-06T02:04:19.600Z,65.53
2023-03-06T02:04:32.499Z,65.34
2023-03-06T02:04:45.663Z,65.59
2023-03-06T02:04:58.218Z,65.28
2023-03-06T02:05:10.269Z,65.52
2023-03-06T02:05:22.823Z,65.33
2023-03-06T02:05:34.984Z,65.24
2023-03-06T02:05:47.310Z,64.99
2023-03-06T02:05:59.755Z,65.36
2023-03-06T02:06:11.892Z,65.29
2023-03-06T02:06:23.876Z,65.45
2023-03-06T02:06:38.401Z,65.09
2023-03-06T02:06:50.786Z,65.38
2023-03-06T02:07:06.104Z,65.38
2023-03-06T02:07:20.619Z,65.14
2023-03-06T02:07:34.225Z,64.98
2023-03-06T02:07:47.133Z,65.14
2023-03-06T02:07:59.173Z,64.70
2023-03-06T02:08:16.203Z,64.92
2023-03-06T02:08:29.582Z,65.28
2023-03-06T02:08:41.630Z,65.04
2023-03-06T02:08:54.246Z,65.27
2023-03-06T02:09:06.641Z,65.04
2023-03-06T02:09:18.908Z,65.29
2023-03-06T02:09:32.675Z,65.22
2023-03-06T02:09:44.671Z,65.45
2023-03-06T02:09:56.942Z,65.26
2023-03-06T02:10:10.070Z,65.11
2023-03-06T02:10:22.120Z,64.85
2023-03-06T02:10:34.120Z,65.17
2023-03-06T02:11:12.415Z,65.58
2023-03-06T02:11:28.328Z,65.36
2023-03-06T02:11:44.168Z,65.36
2023-03-06T02:11:56.509Z,65.42
2023-03-06T02:12:13.354Z,64.83
2023-03-06T02:12:26.699Z,65.01
2023-03-06T02:12:43.803Z,64.94
2023-03-06T02:12:56.302Z,64.93
2023-03-06T02:13:08.446Z,65.00
2023-03-06T02:13:20.419Z,64.64
2023-03-06T02:13:32.600Z,65.00
2023-03-06T02:13:45.944Z,65.10
2023-03-06T02:13:58.074Z,65.13
2023-03-06T02:14:16.348Z,64.75
2023-03-06T02:14:29.326Z,64.59
2023-03-06T02:14:42.358Z,64.69
2023-03-06T02:14:54.602Z,64.96
2023-03-06T02:15:07.054Z,65.21
2023-03-06T02:15:22.098Z,65.42
2023-03-06T02:15:34.180Z,64.77
2023-03-06T02:15:46.231Z,65.32
2023-03-06T02:15:59.250Z,65.24
2023-03-06T02:16:12.567Z,64.86
2023-03-06T02:16:28.846Z,65.02
2023-03-06T02:16:42.824Z,65.16
2023-03-06T02:16:54.984Z,65.56
2023-03-06T02:17:08.462Z,65.53
2023-03-06T02:17:22.350Z,65.13
2023-03-06T02:17:35.794Z,65.41
2023-03-06T02:17:50.698Z,65.23
2023-03-06T02:18:02.704Z,65.39
2023-03-06T02:18:14.813Z,65.17
2023-03-06T02:18:28.227Z,65.17
2023-03-06T02:18:42.646Z,65.16
2023-03-06T02:18:58.153Z,65.11
2023-03-06T02:19:24.704Z,65.17
2023-03-06T02:19:54.894Z,64.96
2023-03-06T02:20:27.974Z,65.30
2023-03-06T02:20:48.787Z,65.32
2023-03-06T02:21:04.343Z,65.15
2023-03-06T02:21:24.388Z,65.06
2023-03-06T02:21:37.662Z,64.32
2023-03-06T02:21:49.864Z,64.79
2023-03-06T02:22:03.218Z,65.07
2023-03-06T02:22:15.144Z,65.09
2023-03-06T02:22:37.357Z,65.02
2023-03-06T02:23:27.989Z,64.69
2023-03-06T02:23:50.382Z,65.11
2023-03-06T02:24:16.185Z,64.88
2023-03-06T02:24:42.455Z,65.00
2023-03-06T02:24:54.339Z,64.62
2023-03-06T02:25:32.533Z,64.42
2023-03-06T02:25:48.187Z,64.44
2023-03-06T02:26:01.546Z,64.57
2023-03-06T02:26:14.916Z,64.58
2023-03-06T02:26:28.137Z,64.42
2023-03-06T02:26:42.210Z,64.27
2023-03-06T02:26:55.550Z,64.07
2023-03-06T02:27:09.983Z,64.72
2023-03-06T02:27:24.429Z,64.95
2023-03-06T02:27:36.464Z,64.68
2023-03-06T02:27:49.090Z,64.65
2023-03-06T02:28:01.719Z,64.58
2023-03-06T02:28:18.039Z,64.93
2023-03-06T02:28:30.057Z,64.52
2023-03-06T02:28:42.233Z,64.78
2023-03-06T02:28:54.205Z,65.20
2023-03-06T02:29:07.585Z,65.65
2023-03-06T02:29:27.305Z,65.32
2023-03-06T02:29:39.216Z,65.83
2023-03-06T02:29:51.217Z,65.58
2023-03-06T02:30:08.537Z,65.47
2023-03-06T02:30:22.468Z,65.22
2023-03-06T02:30:35.485Z,65.00
2023-03-06T02:30:49.679Z,65.30
2023-03-06T02:31:01.681Z,65.22
2023-03-06T02:31:24.142Z,65.12
2023-03-06T02:31:36.184Z,65.00
2023-03-06T02:31:48.159Z,65.23
2023-03-06T02:32:00.121Z,64.71
2023-03-06T02:32:12.312Z,64.60
2023-03-06T02:32:24.328Z,65.06
2023-03-06T02:32:36.409Z,65.04
2023-03-06T02:32:48.422Z,65.11
2023-03-06T02:33:00.372Z,65.19
2023-03-06T02:33:18.610Z,65.66
2023-03-06T02:33:30.563Z,65.28
2023-03-06T02:33:42.495Z,65.44
2023-03-06T02:34:07.813Z,65.35
2023-03-06T02:34:19.656Z,64.86
2023-03-06T02:34:37.584Z,65.05
2023-03-06T02:34:53.434Z,65.24
2023-03-06T02:35:07.069Z,65.32
2023-03-06T02:35:22.237Z,65.59
2023-03-06T02:35:36.306Z,65.19
2023-03-06T02:36:03.111Z,64.97
2023-03-06T02:36:16.122Z,65.54
2023-03-06T02:36:29.483Z,64.70
2023-03-06T02:36:46.381Z,65.21
2023-03-06T02:37:02.929Z,65.75
2023-03-06T02:37:15.022Z,65.59
2023-03-06T02:37:28.591Z,65.58
2023-03-06T02:37:40.522Z,65.88
2023-03-06T02:37:53.605Z,65.91
2023-03-06T02:38:10.494Z,65.63
2023-03-06T02:38:27.930Z,65.71
2023-03-06T02:38:50.892Z,65.21
2023-03-06T02:39:05.565Z,65.15
2023-03-06T02:39:22.398Z,65.75
2023-03-06T02:39:38.973Z,65.09
2023-03-06T02:39:57.534Z,65.12
2023-03-06T02:40:15.300Z,65.53
2023-03-06T02:40:27.542Z,66.07
2023-03-06T02:40:43.674Z,66.32
2023-03-06T02:40:57.948Z,66.04
2023-03-06T02:41:09.915Z,65.96
2023-03-06T02:41:21.888Z,65.91
2023-03-06T02:41:33.942Z,65.99
2023-03-06T02:41:45.892Z,66.18
2023-03-06T02:41:59.981Z,65.90
2023-03-06T02:42:18.194Z,65.69
2023-03-06T02:42:30.401Z,66.06
2023-03-06T02:42:47.823Z,65.88
2023-03-06T02:43:00.361Z,65.83
2023-03-06T02:43:15.102Z,65.84
2023-03-06T02:43:29.495Z,65.57
2023-03-06T02:43:45.462Z,65.47
2023-03-06T02:43:57.413Z,65.56
2023-03-06T02:44:09.343Z,65.50
2023-03-06T02:44:23.143Z,65.18
2023-03-06T02:44:36.633Z,65.48
2023-03-06T02:44:49.571Z,65.58
2023-03-06T02:45:03.653Z,65.61
2023-03-06T02:45:22.823Z,65.32
2023-03-06T02:45:38.957Z,65.06
2023-03-06T02:45:51.724Z,65.30
2023-03-06T02:46:03.941Z,65.55
2023-03-06T02:46:18.331Z,66.54
2023-03-06T02:46:30.389Z,67.76
2023-03-06T02:46:42.352Z,68.55
2023-03-06T02:46:54.306Z,68.31
2023-03-06T02:47:07.753Z,68.89
2023-03-06T02:47:19.708Z,68.66
2023-03-06T02:47:32.933Z,67.85
2023-03-06T02:47:44.881Z,67.48
2023-03-06T02:47:56.876Z,67.50
2023-03-06T02:48:09.305Z,68.16
2023-03-06T02:48:21.615Z,68.17
2023-03-06T02:48:33.648Z,68.18
2023-03-06T02:48:45.599Z,68.58
2023-03-06T02:48:57.534Z,68.74
2023-03-06T02:49:09.478Z,68.77
2023-03-06T02:49:21.426Z,68.73
2023-03-06T02:49:33.333Z,68.83
2023-03-06T02:49:45.495Z,68.39
2023-03-06T02:49:57.449Z,68.33
2023-03-06T02:50:10.299Z,68.54
2023-03-06T02:50:22.253Z,68.58
2023-03-06T02:50:34.380Z,68.50
2023-03-06T02:50:47.070Z,68.07
2023-03-06T02:50:59.177Z,68.03
2023-03-06T02:51:11.132Z,68.06
2023-03-06T02:51:23.332Z,67.86
2023-03-06T02:51:35.301Z,67.87
2023-03-06T02:51:47.588Z,67.75
2023-03-06T02:51:59.532Z,67.28
2023-03-06T02:52:11.562Z,67.44
2023-03-06T02:52:23.790Z,67.21
2023-03-06T02:52:35.768Z,67.25